LHA8LH KBZN-KBFI
Flight info
| Callsign | LHA8LH |
|---|---|
| Flight time | 1h 20m |
| Altitude | 40000 |
| Route | HIA DCT MLP |
| Aircraft | B737/M-SDE1E2FGIJ1RWYZ/S |
Departure
| Time | 2026-04-27 15:58 |
|---|---|
| Airport | Bozeman Yellowstone International Airport (KBZN) |
Arrival
| Time | 2026-04-27 17:18 |
|---|---|
| Airport | King County International Airport - Boeing Field (KBFI) |
| Time | Latitude | Longitude | Altitude | Speed | Heading |
|---|---|---|---|---|---|
| 2026-04-27 15:47 | 45.77796 | -111.15945 | 4452 ft | 0 kts | 259° |
| 2026-04-27 15:53 | 45.77798 | -111.15931 | 4452 ft | 3 kts | 257° |
| 2026-04-27 15:53 | 45.77804 | -111.15895 | 4452 ft | 4 kts | 252° |
| 2026-04-27 15:54 | 45.77814 | -111.15857 | 4452 ft | 4 kts | 249° |
| 2026-04-27 15:54 | 45.77817 | -111.15837 | 4452 ft | 2 kts | 294° |
| 2026-04-27 15:54 | 45.77812 | -111.15827 | 4452 ft | 0 kts | 314° |
| 2026-04-27 15:55 | 45.77816 | -111.15833 | 4452 ft | 2 kts | 314° |
| 2026-04-27 15:55 | 45.77839 | -111.15867 | 4451 ft | 7 kts | 314° |
| 2026-04-27 15:56 | 45.77890 | -111.15913 | 4450 ft | 11 kts | 358° |
| 2026-04-27 15:56 | 45.77979 | -111.15916 | 4449 ft | 16 kts | 334° |
| 2026-04-27 15:56 | 45.78087 | -111.16053 | 4447 ft | 25 kts | 316° |
| 2026-04-27 15:56 | 45.78211 | -111.16133 | 4444 ft | 18 kts | 38° |
| 2026-04-27 15:57 | 45.78288 | -111.15986 | 4444 ft | 20 kts | 86° |
| 2026-04-27 15:57 | 45.78146 | -111.15727 | 4450 ft | 68 kts | 137° |
| 2026-04-27 15:57 | 45.77619 | -111.14996 | 4461 ft | 140 kts | 136° |
| 2026-04-27 15:57 | 45.76821 | -111.13882 | 4880 ft | 164 kts | 135° |
| 2026-04-27 15:58 | 45.75998 | -111.12845 | 5828 ft | 163 kts | 158° |
| 2026-04-27 15:58 | 45.74889 | -111.12845 | 6498 ft | 172 kts | 205° |
| 2026-04-27 15:58 | 45.73775 | -111.13823 | 6889 ft | 206 kts | 213° |
| 2026-04-27 15:58 | 45.72452 | -111.14951 | 7154 ft | 236 kts | 210° |
| 2026-04-27 15:59 | 45.70946 | -111.16101 | 7662 ft | 251 kts | 208° |
| 2026-04-27 15:59 | 45.69363 | -111.17231 | 8451 ft | 256 kts | 207° |
| 2026-04-27 15:59 | 45.67765 | -111.18356 | 8816 ft | 255 kts | 211° |
| 2026-04-27 15:59 | 45.66467 | -111.20070 | 8990 ft | 258 kts | 239° |
| 2026-04-27 16:00 | 45.65944 | -111.22509 | 9036 ft | 265 kts | 269° |
| 2026-04-27 16:00 | 45.66085 | -111.24283 | 9304 ft | 279 kts | 284° |
| 2026-04-27 16:00 | 45.66829 | -111.27888 | 10450 ft | 293 kts | 288° |
| 2026-04-27 16:00 | 45.67489 | -111.30799 | 10764 ft | 323 kts | 288° |
| 2026-04-27 16:01 | 45.68206 | -111.33931 | 11458 ft | 336 kts | 288° |
| 2026-04-27 16:01 | 45.68935 | -111.37145 | 12318 ft | 344 kts | 288° |
| 2026-04-27 16:01 | 45.69672 | -111.40426 | 13224 ft | 349 kts | 288° |
| 2026-04-27 16:01 | 45.70414 | -111.43763 | 14123 ft | 355 kts | 287° |
| 2026-04-27 16:02 | 45.71164 | -111.47163 | 15036 ft | 361 kts | 287° |
| 2026-04-27 16:02 | 45.71920 | -111.50606 | 15966 ft | 365 kts | 287° |
| 2026-04-27 16:02 | 45.72685 | -111.54101 | 16846 ft | 371 kts | 287° |
| 2026-04-27 16:02 | 45.73459 | -111.57648 | 17682 ft | 376 kts | 287° |
| 2026-04-27 16:03 | 45.74242 | -111.61249 | 18501 ft | 381 kts | 287° |
| 2026-04-27 16:03 | 45.75034 | -111.64894 | 19314 ft | 386 kts | 287° |
| 2026-04-27 16:03 | 45.75834 | -111.68585 | 20106 ft | 391 kts | 287° |
| 2026-04-27 16:03 | 45.76644 | -111.72326 | 20830 ft | 396 kts | 287° |
| 2026-04-27 16:04 | 45.77464 | -111.76121 | 21548 ft | 401 kts | 287° |
| 2026-04-27 16:04 | 45.78290 | -111.79953 | 22234 ft | 405 kts | 287° |
| 2026-04-27 16:04 | 45.79125 | -111.83834 | 22871 ft | 410 kts | 287° |
| 2026-04-27 16:04 | 45.79969 | -111.87760 | 23433 ft | 415 kts | 287° |
| 2026-04-27 16:05 | 45.80821 | -111.91735 | 23993 ft | 419 kts | 287° |
| 2026-04-27 16:05 | 45.81679 | -111.95743 | 24619 ft | 422 kts | 287° |
| 2026-04-27 16:05 | 45.82541 | -111.99777 | 25221 ft | 425 kts | 287° |
| 2026-04-27 16:05 | 45.83410 | -112.03853 | 25772 ft | 429 kts | 287° |
| 2026-04-27 16:06 | 45.84284 | -112.07957 | 26315 ft | 432 kts | 287° |
| 2026-04-27 16:06 | 45.85162 | -112.12093 | 26836 ft | 436 kts | 287° |
| 2026-04-27 16:06 | 45.86162 | -112.16219 | 27318 ft | 439 kts | 293° |
| 2026-04-27 16:06 | 45.87580 | -112.20099 | 27792 ft | 442 kts | 303° |
| 2026-04-27 16:07 | 45.89321 | -112.23768 | 28281 ft | 445 kts | 305° |
| 2026-04-27 16:07 | 45.91118 | -112.27405 | 28717 ft | 449 kts | 306° |
| 2026-04-27 16:07 | 45.92942 | -112.31059 | 29108 ft | 452 kts | 306° |
| 2026-04-27 16:07 | 45.94780 | -112.34755 | 29445 ft | 457 kts | 305° |
| 2026-04-27 16:08 | 45.96624 | -112.38494 | 29760 ft | 460 kts | 305° |
| 2026-04-27 16:08 | 45.98473 | -112.42273 | 30079 ft | 463 kts | 305° |
| 2026-04-27 16:08 | 46.00322 | -112.46080 | 30398 ft | 466 kts | 305° |
| 2026-04-27 16:08 | 46.02172 | -112.49906 | 30818 ft | 466 kts | 304° |
| 2026-04-27 16:09 | 46.04021 | -112.53742 | 31206 ft | 467 kts | 304° |
| 2026-04-27 16:09 | 46.07748 | -112.61496 | 31730 ft | 474 kts | 304° |
| 2026-04-27 16:09 | 46.09620 | -112.65399 | 32150 ft | 473 kts | 304° |
| 2026-04-27 16:10 | 46.13344 | -112.73175 | 32981 ft | 471 kts | 304° |
| 2026-04-27 16:10 | 46.17019 | -112.80870 | 33986 ft | 466 kts | 304° |
| 2026-04-27 16:11 | 46.18850 | -112.84709 | 34438 ft | 464 kts | 304° |
| 2026-04-27 16:11 | 46.22491 | -112.92361 | 36613 ft | 455 kts | 303° |
| 2026-04-27 16:12 | 46.26027 | -112.99812 | 37589 ft | 446 kts | 303° |
| 2026-04-27 16:12 | 46.27780 | -113.03514 | 37884 ft | 447 kts | 303° |
| 2026-04-27 16:12 | 46.31296 | -113.10957 | 38387 ft | 449 kts | 303° |
| 2026-04-27 16:13 | 46.33054 | -113.14685 | 38694 ft | 449 kts | 303° |
| 2026-04-27 16:13 | 46.36568 | -113.22150 | 39169 ft | 449 kts | 303° |
| 2026-04-27 16:13 | 46.38324 | -113.25889 | 39369 ft | 449 kts | 303° |
| 2026-04-27 16:14 | 46.41834 | -113.33375 | 39822 ft | 449 kts | 303° |
| 2026-04-27 16:14 | 46.45350 | -113.40895 | 40032 ft | 454 kts | 303° |
| 2026-04-27 16:15 | 46.52365 | -113.55959 | 40044 ft | 448 kts | 303° |
| 2026-04-27 16:16 | 46.59286 | -113.70901 | 40052 ft | 444 kts | 303° |
| 2026-04-27 16:17 | 46.65566 | -113.84529 | 40068 ft | 443 kts | 303° |
| 2026-04-27 16:18 | 46.72430 | -113.99502 | 40062 ft | 446 kts | 303° |
| 2026-04-27 16:19 | 46.75881 | -114.07061 | 40056 ft | 449 kts | 303° |
| 2026-04-27 16:20 | 46.82806 | -114.22290 | 40056 ft | 452 kts | 303° |
| 2026-04-27 16:21 | 46.88010 | -114.33791 | 40052 ft | 453 kts | 303° |
| 2026-04-27 16:22 | 46.94936 | -114.49170 | 40068 ft | 452 kts | 303° |
| 2026-04-27 16:22 | 47.00108 | -114.60709 | 40086 ft | 451 kts | 303° |
| 2026-04-27 16:23 | 47.05253 | -114.72239 | 40092 ft | 450 kts | 303° |
| 2026-04-27 16:24 | 47.08669 | -114.79920 | 40090 ft | 449 kts | 303° |
| 2026-04-27 16:25 | 47.15470 | -114.95276 | 40086 ft | 448 kts | 303° |
| 2026-04-27 16:26 | 47.22248 | -115.10666 | 40084 ft | 448 kts | 303° |
| 2026-04-27 16:27 | 47.28985 | -115.26050 | 40083 ft | 449 kts | 303° |
| 2026-04-27 16:28 | 47.37427 | -115.45450 | 40079 ft | 450 kts | 303° |
| 2026-04-27 16:29 | 47.45298 | -115.65380 | 40075 ft | 452 kts | 289° |
| 2026-04-27 16:30 | 47.46456 | -115.74501 | 40085 ft | 453 kts | 276° |
| 2026-04-27 16:30 | 47.46978 | -115.83807 | 40064 ft | 455 kts | 275° |
| 2026-04-27 16:31 | 47.48296 | -116.07084 | 40064 ft | 455 kts | 276° |
| 2026-04-27 16:32 | 47.49121 | -116.21056 | 40063 ft | 455 kts | 276° |
| 2026-04-27 16:33 | 47.49928 | -116.35023 | 40069 ft | 454 kts | 276° |
| 2026-04-27 16:33 | 47.50455 | -116.44334 | 40063 ft | 454 kts | 276° |
| 2026-04-27 16:34 | 47.50975 | -116.53645 | 40064 ft | 454 kts | 276° |
| 2026-04-27 16:34 | 47.51487 | -116.62952 | 40052 ft | 454 kts | 276° |
| 2026-04-27 16:35 | 47.51991 | -116.72254 | 40039 ft | 454 kts | 276° |
| 2026-04-27 16:36 | 47.52732 | -116.86203 | 40030 ft | 453 kts | 276° |
| 2026-04-27 16:36 | 47.53217 | -116.95502 | 40030 ft | 453 kts | 276° |
| 2026-04-27 16:37 | 47.53691 | -117.04732 | 40014 ft | 453 kts | 276° |
| 2026-04-27 16:37 | 47.54160 | -117.14018 | 40010 ft | 453 kts | 276° |
| 2026-04-27 16:38 | 47.54621 | -117.23312 | 40002 ft | 453 kts | 276° |
| 2026-04-27 16:38 | 47.55076 | -117.32608 | 39998 ft | 453 kts | 276° |
| 2026-04-27 16:39 | 47.55523 | -117.41907 | 39992 ft | 453 kts | 276° |
| 2026-04-27 16:39 | 47.55963 | -117.51216 | 39989 ft | 453 kts | 276° |
| 2026-04-27 16:40 | 47.56397 | -117.60530 | 39975 ft | 454 kts | 275° |
| 2026-04-27 16:40 | 47.57061 | -117.69804 | 39970 ft | 453 kts | 279° |
| 2026-04-27 16:41 | 47.57988 | -117.78969 | 39975 ft | 453 kts | 280° |
| 2026-04-27 16:41 | 47.58924 | -117.88197 | 39975 ft | 453 kts | 280° |
| 2026-04-27 16:42 | 47.59817 | -117.97431 | 39971 ft | 453 kts | 279° |
| 2026-04-27 16:42 | 47.60685 | -118.06683 | 39980 ft | 453 kts | 279° |
| 2026-04-27 16:43 | 47.61541 | -118.15939 | 39971 ft | 453 kts | 279° |
| 2026-04-27 16:43 | 47.62392 | -118.25199 | 39977 ft | 453 kts | 279° |
| 2026-04-27 16:44 | 47.63235 | -118.34460 | 39973 ft | 453 kts | 279° |
| 2026-04-27 16:44 | 47.64071 | -118.43719 | 39974 ft | 453 kts | 279° |
| 2026-04-27 16:45 | 47.64899 | -118.52980 | 39977 ft | 453 kts | 279° |
| 2026-04-27 16:45 | 47.65720 | -118.62239 | 39981 ft | 453 kts | 279° |
| 2026-04-27 16:46 | 47.66533 | -118.71502 | 39969 ft | 453 kts | 279° |
| 2026-04-27 16:46 | 47.67333 | -118.80711 | 39977 ft | 453 kts | 279° |
| 2026-04-27 16:47 | 47.68137 | -118.90041 | 39981 ft | 453 kts | 279° |
| 2026-04-27 16:47 | 47.68923 | -118.99258 | 39976 ft | 453 kts | 279° |
| 2026-04-27 16:48 | 47.69706 | -119.08530 | 39981 ft | 453 kts | 279° |
| 2026-04-27 16:48 | 47.70481 | -119.17803 | 39976 ft | 453 kts | 279° |
| 2026-04-27 16:49 | 47.71631 | -119.31716 | 39980 ft | 453 kts | 279° |
| 2026-04-27 16:49 | 47.72389 | -119.41001 | 39971 ft | 453 kts | 279° |
| 2026-04-27 16:50 | 47.73140 | -119.50292 | 39975 ft | 453 kts | 279° |
| 2026-04-27 16:50 | 47.73880 | -119.59581 | 39973 ft | 453 kts | 279° |
| 2026-04-27 16:51 | 47.74614 | -119.68873 | 39972 ft | 453 kts | 279° |
| 2026-04-27 16:51 | 47.75340 | -119.78164 | 39972 ft | 453 kts | 279° |
| 2026-04-27 16:52 | 47.75704 | -119.82839 | 39500 ft | 460 kts | 279° |
| 2026-04-27 16:52 | 47.76068 | -119.87559 | 38941 ft | 459 kts | 279° |
| 2026-04-27 16:52 | 47.76430 | -119.92275 | 38117 ft | 460 kts | 279° |
| 2026-04-27 16:52 | 47.76790 | -119.96997 | 37366 ft | 459 kts | 279° |
| 2026-04-27 16:53 | 47.77145 | -120.01694 | 36617 ft | 457 kts | 280° |
| 2026-04-27 16:53 | 47.77501 | -120.06391 | 35871 ft | 456 kts | 280° |
| 2026-04-27 16:53 | 47.77853 | -120.11073 | 35072 ft | 456 kts | 280° |
| 2026-04-27 16:53 | 47.78203 | -120.15763 | 34224 ft | 457 kts | 280° |
| 2026-04-27 16:54 | 47.78550 | -120.20450 | 33475 ft | 454 kts | 280° |
| 2026-04-27 16:54 | 47.78890 | -120.25087 | 32762 ft | 448 kts | 280° |
| 2026-04-27 16:54 | 47.79225 | -120.29673 | 32122 ft | 442 kts | 280° |
| 2026-04-27 16:54 | 47.79553 | -120.34187 | 31503 ft | 436 kts | 280° |
| 2026-04-27 16:55 | 47.79875 | -120.38640 | 30889 ft | 431 kts | 280° |
| 2026-04-27 16:55 | 47.80193 | -120.43041 | 30329 ft | 425 kts | 280° |
| 2026-04-27 16:55 | 47.80505 | -120.47391 | 29667 ft | 420 kts | 280° |
| 2026-04-27 16:55 | 47.80811 | -120.51681 | 29030 ft | 414 kts | 280° |
| 2026-04-27 16:56 | 47.81111 | -120.55903 | 28419 ft | 408 kts | 280° |
| 2026-04-27 16:56 | 47.81406 | -120.60065 | 27802 ft | 402 kts | 281° |
| 2026-04-27 16:56 | 47.81696 | -120.64176 | 27209 ft | 397 kts | 281° |
| 2026-04-27 16:56 | 47.81981 | -120.68238 | 26606 ft | 393 kts | 281° |
| 2026-04-27 16:57 | 47.82263 | -120.72261 | 26002 ft | 389 kts | 281° |
| 2026-04-27 16:57 | 47.82538 | -120.76236 | 25429 ft | 384 kts | 280° |
| 2026-04-27 16:57 | 47.82809 | -120.80174 | 24852 ft | 381 kts | 281° |
| 2026-04-27 16:57 | 47.83076 | -120.84078 | 24281 ft | 378 kts | 280° |
| 2026-04-27 16:58 | 47.83340 | -120.87951 | 23716 ft | 375 kts | 280° |
| 2026-04-27 16:58 | 47.83600 | -120.91802 | 23035 ft | 373 kts | 280° |
| 2026-04-27 16:58 | 47.83855 | -120.95577 | 22427 ft | 370 kts | 280° |
| 2026-04-27 16:58 | 47.84109 | -120.99367 | 21835 ft | 366 kts | 280° |
| 2026-04-27 16:59 | 47.84361 | -121.03151 | 21274 ft | 361 kts | 280° |
| 2026-04-27 16:59 | 47.84608 | -121.06855 | 20687 ft | 358 kts | 280° |
| 2026-04-27 16:59 | 47.84853 | -121.10536 | 20120 ft | 355 kts | 280° |
| 2026-04-27 16:59 | 47.85093 | -121.14170 | 19556 ft | 352 kts | 279° |
| 2026-04-27 17:00 | 47.85404 | -121.18931 | 18809 ft | 347 kts | 279° |
| 2026-04-27 17:00 | 47.85786 | -121.24831 | 17848 ft | 341 kts | 279° |
| 2026-04-27 17:00 | 47.86010 | -121.28322 | 17281 ft | 336 kts | 279° |
| 2026-04-27 17:01 | 47.86232 | -121.31770 | 16677 ft | 334 kts | 279° |
| 2026-04-27 17:01 | 47.86452 | -121.35200 | 16114 ft | 332 kts | 279° |
| 2026-04-27 17:01 | 47.86669 | -121.38609 | 15559 ft | 330 kts | 279° |
| 2026-04-27 17:01 | 47.86885 | -121.42007 | 15004 ft | 328 kts | 279° |
| 2026-04-27 17:02 | 47.87099 | -121.45381 | 14450 ft | 327 kts | 278° |
| 2026-04-27 17:02 | 47.87310 | -121.48747 | 13888 ft | 325 kts | 279° |
| 2026-04-27 17:02 | 47.87520 | -121.52087 | 13296 ft | 323 kts | 278° |
| 2026-04-27 17:02 | 47.87727 | -121.55417 | 12713 ft | 322 kts | 278° |
| 2026-04-27 17:03 | 47.87931 | -121.58716 | 12152 ft | 318 kts | 278° |
| 2026-04-27 17:03 | 47.88134 | -121.61980 | 11611 ft | 316 kts | 278° |
| 2026-04-27 17:03 | 47.88332 | -121.65224 | 11213 ft | 309 kts | 278° |
| 2026-04-27 17:03 | 47.88384 | -121.68339 | 11064 ft | 297 kts | 264° |
| 2026-04-27 17:04 | 47.87711 | -121.71183 | 10886 ft | 291 kts | 243° |
| 2026-04-27 17:04 | 47.86423 | -121.73503 | 10658 ft | 292 kts | 226° |
| 2026-04-27 17:04 | 47.84917 | -121.75539 | 10425 ft | 294 kts | 224° |
| 2026-04-27 17:04 | 47.83901 | -121.76879 | 10255 ft | 296 kts | 224° |
| 2026-04-27 17:05 | 47.82377 | -121.78902 | 9991 ft | 290 kts | 224° |
| 2026-04-27 17:05 | 47.80898 | -121.80885 | 9710 ft | 282 kts | 225° |
| 2026-04-27 17:05 | 47.79463 | -121.82820 | 9464 ft | 276 kts | 225° |
| 2026-04-27 17:05 | 47.78170 | -121.84892 | 9204 ft | 272 kts | 242° |
| 2026-04-27 17:06 | 47.77609 | -121.87505 | 9015 ft | 266 kts | 269° |
| 2026-04-27 17:06 | 47.77825 | -121.90203 | 8789 ft | 263 kts | 290° |
| 2026-04-27 17:06 | 47.78458 | -121.92757 | 8571 ft | 264 kts | 293° |
| 2026-04-27 17:06 | 47.79135 | -121.95292 | 8338 ft | 264 kts | 294° |
| 2026-04-27 17:07 | 47.79808 | -121.97833 | 8100 ft | 265 kts | 293° |
| 2026-04-27 17:07 | 47.80472 | -122.00386 | 7868 ft | 265 kts | 292° |
| 2026-04-27 17:07 | 47.81128 | -122.02941 | 7641 ft | 264 kts | 292° |
| 2026-04-27 17:07 | 47.81781 | -122.05494 | 7411 ft | 263 kts | 292° |
| 2026-04-27 17:08 | 47.82227 | -122.08126 | 7174 ft | 265 kts | 275° |
| 2026-04-27 17:08 | 47.82271 | -122.10852 | 6961 ft | 263 kts | 272° |
| 2026-04-27 17:08 | 47.82290 | -122.13567 | 6730 ft | 262 kts | 272° |
| 2026-04-27 17:08 | 47.82315 | -122.16269 | 6509 ft | 260 kts | 272° |
| 2026-04-27 17:09 | 47.82350 | -122.18953 | 6274 ft | 259 kts | 272° |
| 2026-04-27 17:09 | 47.82389 | -122.21629 | 6045 ft | 258 kts | 272° |
| 2026-04-27 17:09 | 47.82430 | -122.24290 | 5820 ft | 256 kts | 272° |
| 2026-04-27 17:09 | 47.82470 | -122.26935 | 5599 ft | 255 kts | 272° |
| 2026-04-27 17:10 | 47.82350 | -122.29560 | 5369 ft | 255 kts | 259° |
| 2026-04-27 17:10 | 47.81892 | -122.32094 | 5165 ft | 254 kts | 255° |
| 2026-04-27 17:10 | 47.81387 | -122.34609 | 4945 ft | 253 kts | 255° |
| 2026-04-27 17:10 | 47.80896 | -122.37112 | 4724 ft | 252 kts | 255° |
| 2026-04-27 17:11 | 47.80387 | -122.39602 | 4493 ft | 252 kts | 248° |
| 2026-04-27 17:11 | 47.77773 | -122.42802 | 4049 ft | 254 kts | 198° |
| 2026-04-27 17:11 | 47.76061 | -122.43442 | 3827 ft | 253 kts | 194° |
| 2026-04-27 17:12 | 47.72653 | -122.44580 | 3401 ft | 243 kts | 194° |
| 2026-04-27 17:12 | 47.71067 | -122.45131 | 3304 ft | 225 kts | 194° |
| 2026-04-27 17:12 | 47.69602 | -122.45648 | 3186 ft | 208 kts | 194° |
| 2026-04-27 17:13 | 47.68236 | -122.46089 | 3043 ft | 194 kts | 186° |
| 2026-04-27 17:13 | 47.66983 | -122.45641 | 2932 ft | 182 kts | 150° |
| 2026-04-27 17:13 | 47.66029 | -122.44446 | 2608 ft | 183 kts | 136° |
| 2026-04-27 17:13 | 47.65156 | -122.43154 | 2370 ft | 172 kts | 136° |
| 2026-04-27 17:14 | 47.64346 | -122.41959 | 2210 ft | 156 kts | 137° |
| 2026-04-27 17:14 | 47.63626 | -122.40899 | 2097 ft | 138 kts | 137° |
| 2026-04-27 17:14 | 47.62972 | -122.39934 | 1946 ft | 131 kts | 138° |
| 2026-04-27 17:14 | 47.62325 | -122.38982 | 1857 ft | 131 kts | 137° |
| 2026-04-27 17:15 | 47.61677 | -122.38030 | 1737 ft | 132 kts | 137° |
| 2026-04-27 17:15 | 47.60986 | -122.37165 | 1642 ft | 127 kts | 147° |
| 2026-04-27 17:15 | 47.60252 | -122.36439 | 1483 ft | 127 kts | 150° |
| 2026-04-27 17:15 | 47.59504 | -122.35767 | 1322 ft | 124 kts | 151° |
| 2026-04-27 17:16 | 47.58762 | -122.35125 | 1140 ft | 122 kts | 152° |
| 2026-04-27 17:16 | 47.58027 | -122.34497 | 943 ft | 121 kts | 152° |
| 2026-04-27 17:16 | 47.57306 | -122.33886 | 791 ft | 118 kts | 153° |
| 2026-04-27 17:16 | 47.56595 | -122.33286 | 683 ft | 116 kts | 153° |
| 2026-04-27 17:17 | 47.55877 | -122.32683 | 526 ft | 118 kts | 152° |
| 2026-04-27 17:17 | 47.55170 | -122.32073 | 337 ft | 116 kts | 153° |
| 2026-04-27 17:17 | 47.54480 | -122.31493 | 179 ft | 112 kts | 153° |
| 2026-04-27 17:18 | 47.53199 | -122.30414 | 29 ft | 81 kts | 150° |
| 2026-04-27 17:18 | 47.52840 | -122.30113 | 27 ft | 37 kts | 150° |
| 2026-04-27 17:18 | 47.52708 | -122.30010 | 24 ft | 13 kts | 171° |
| 2026-04-27 17:18 | 47.52662 | -122.30066 | 25 ft | 6 kts | 239° |
| 2026-04-27 17:19 | 47.52671 | -122.30119 | 26 ft | 6 kts | 322° |
| 2026-04-27 17:19 | 47.52730 | -122.30169 | 26 ft | 12 kts | 330° |
| 2026-04-27 17:19 | 47.52801 | -122.30229 | 31 ft | 12 kts | 330° |
| 2026-04-27 17:19 | 47.52871 | -122.30288 | 28 ft | 11 kts | 330° |
| 2026-04-27 17:20 | 47.52940 | -122.30347 | 28 ft | 12 kts | 331° |
| 2026-04-27 17:20 | 47.53029 | -122.30421 | 27 ft | 17 kts | 329° |
| 2026-04-27 17:20 | 47.53102 | -122.30557 | 27 ft | 17 kts | 310° |
| 2026-04-27 17:20 | 47.53181 | -122.30688 | 23 ft | 18 kts | 312° |
| 2026-04-27 17:21 | 47.53260 | -122.30825 | 23 ft | 17 kts | 314° |
| 2026-04-27 17:21 | 47.53359 | -122.30918 | 21 ft | 17 kts | 330° |
| 2026-04-27 17:21 | 47.53457 | -122.31001 | 23 ft | 16 kts | 330° |
| 2026-04-27 17:21 | 47.53552 | -122.31080 | 28 ft | 15 kts | 330° |
| 2026-04-27 17:22 | 47.53624 | -122.31144 | 25 ft | 11 kts | 323° |
| 2026-04-27 17:22 | 47.53666 | -122.31231 | 25 ft | 10 kts | 284° |
| 2026-04-27 17:22 | 47.53668 | -122.31272 | 24 ft | 0 kts | 271° |